createdAt,value
2023-02-21T00:01:48.806Z,16.33
2023-02-21T00:11:50.093Z,16.48
2023-02-21T00:21:51.360Z,17.10
2023-02-21T00:31:52.615Z,18.20
2023-02-21T00:41:53.881Z,17.88
2023-02-21T00:51:55.205Z,17.58
2023-02-21T01:01:56.488Z,17.77
2023-02-21T01:11:57.737Z,18.52
2023-02-21T01:21:59.009Z,17.85
2023-02-21T01:32:00.398Z,17.92
2023-02-21T01:42:04.801Z,18.17
2023-02-21T01:52:06.104Z,18.83
2023-02-21T02:02:07.336Z,20.15
2023-02-21T02:12:08.594Z,20.10
2023-02-21T02:22:09.897Z,19.20
2023-02-21T02:32:11.179Z,19.25
2023-02-21T02:42:12.460Z,22.33
2023-02-21T02:52:13.746Z,20.45
2023-02-21T03:02:15.014Z,22.48
2023-02-21T03:12:16.312Z,21.33
2023-02-21T03:22:17.566Z,21.40
2023-02-21T03:32:18.876Z,20.95
2023-02-21T03:42:20.223Z,20.92
2023-02-21T03:52:21.482Z,23.10
2023-02-21T04:02:22.790Z,22.27
2023-02-21T04:12:24.057Z,22.75
2023-02-21T04:22:25.313Z,24.35
2023-02-21T04:32:26.673Z,21.60
2023-02-21T04:42:27.937Z,21.60
2023-02-21T04:52:29.196Z,22.52
2023-02-21T05:02:30.447Z,23.25
2023-02-21T05:12:31.677Z,22.92
2023-02-21T05:22:32.937Z,22.42
2023-02-21T05:32:34.192Z,21.25
2023-02-21T05:42:35.466Z,21.23
2023-02-21T05:52:36.684Z,19.38
2023-02-21T06:02:37.948Z,20.65
2023-02-21T06:12:39.192Z,19.67
2023-02-21T06:22:40.529Z,19.73
2023-02-21T06:32:41.806Z,19.40
2023-02-21T06:42:43.353Z,21.98
2023-02-21T06:52:44.592Z,17.67
2023-02-21T07:02:46.129Z,14.45
2023-02-21T07:12:47.482Z,14.50
2023-02-21T07:22:48.833Z,10.63
2023-02-21T07:32:50.193Z,12.02
2023-02-21T07:42:51.591Z,12.15
2023-02-21T07:52:52.945Z,10.70
2023-02-21T08:02:54.498Z,10.82
2023-02-21T08:12:55.768Z,9.80
2023-02-21T08:22:57.282Z,8.98
2023-02-21T08:32:58.659Z,8.95
2023-02-21T08:43:04.401Z,8.70
2023-02-21T08:53:14.931Z,8.43
2023-02-21T09:03:19.671Z,8.17
2023-02-21T09:13:27.551Z,7.65
2023-02-21T09:33:57.590Z,7.28
2023-02-21T09:43:58.830Z,7.07
2023-02-21T09:54:00.281Z,6.80
2023-02-21T10:04:08.550Z,5.50
2023-02-21T10:14:16.536Z,8.48
2023-02-21T10:34:47.406Z,6.88
2023-02-21T10:44:48.738Z,9.50
2023-02-21T10:54:51.371Z,6.28
2023-02-21T11:05:09.062Z,5.90
2023-02-21T11:15:10.326Z,6.63
2023-02-21T11:25:19.905Z,5.50
2023-02-21T11:35:26.642Z,7.25
2023-02-21T11:45:36.476Z,6.20
2023-02-21T11:55:41.889Z,6.90
2023-02-21T12:05:50.509Z,5.78
2023-02-21T12:15:58.500Z,5.38
2023-02-21T12:26:07.650Z,5.10
2023-02-21T12:36:16.959Z,5.75
2023-02-21T12:46:24.535Z,5.82
2023-02-21T12:56:32.472Z,5.43
2023-02-21T13:06:40.506Z,6.97
2023-02-21T13:27:05.141Z,5.28
2023-02-21T13:37:06.746Z,6.03
2023-02-21T13:47:14.532Z,5.75
2023-02-21T13:57:22.548Z,5.85
2023-02-21T14:07:30.505Z,5.10
2023-02-21T14:17:38.579Z,7.10
2023-02-21T14:27:46.518Z,6.43
2023-02-21T14:37:54.508Z,6.13
2023-02-21T14:48:03.768Z,6.63
2023-02-21T14:58:22.756Z,6.63
2023-02-21T15:08:24.297Z,7.05
2023-02-21T15:18:28.489Z,7.30
2023-02-21T15:28:35.057Z,8.35
2023-02-21T15:38:44.536Z,8.75
2023-02-21T15:48:52.546Z,9.48
2023-02-21T15:59:00.528Z,7.90
2023-02-21T16:09:08.512Z,8.35
2023-02-21T16:19:10.151Z,8.25
2023-02-21T16:29:11.460Z,8.10
2023-02-21T16:39:12.718Z,8.48
2023-02-21T16:49:14.191Z,8.38
2023-02-21T16:59:15.508Z,7.50
2023-02-21T17:09:16.890Z,9.82
2023-02-21T17:19:25.517Z,8.35
2023-02-21T17:29:26.956Z,7.63
2023-02-21T17:39:28.236Z,7.78
2023-02-21T17:49:29.771Z,7.25
2023-02-21T17:59:31.174Z,7.55
2023-02-21T18:09:32.631Z,7.20
2023-02-21T18:19:34.039Z,6.18
2023-02-21T18:29:35.257Z,6.55
2023-02-21T18:39:36.553Z,6.22
2023-02-21T18:49:38.132Z,6.60
2023-02-21T18:59:39.653Z,5.93
2023-02-21T19:09:41.246Z,5.97
2023-02-21T19:19:42.769Z,5.63
2023-02-21T19:29:44.193Z,5.32
2023-02-21T19:39:45.836Z,5.53
2023-02-21T19:49:47.395Z,5.70
2023-02-21T19:59:48.692Z,5.63
2023-02-21T20:09:50.339Z,6.65
2023-02-21T20:19:51.718Z,6.72
2023-02-21T20:29:54.235Z,8.75
2023-02-21T20:39:56.142Z,8.07
2023-02-21T20:49:57.606Z,8.93
2023-02-21T20:59:59.097Z,10.45
2023-02-21T21:10:00.386Z,9.85
2023-02-21T21:20:01.823Z,9.95
2023-02-21T21:30:03.258Z,11.85
2023-02-21T21:40:04.572Z,10.10
2023-02-21T21:50:05.862Z,10.45
2023-02-21T22:00:07.251Z,10.15
2023-02-21T22:10:08.538Z,9.82
2023-02-21T22:20:09.928Z,9.63
2023-02-21T22:30:11.486Z,9.23
2023-02-21T22:40:12.941Z,8.95
2023-02-21T22:50:14.351Z,9.00
2023-02-21T23:00:15.719Z,9.43
2023-02-21T23:10:17.121Z,7.75
2023-02-21T23:20:18.391Z,8.05
2023-02-21T23:30:19.637Z,8.90
2023-02-21T23:40:20.917Z,8.02
2023-02-21T23:50:22.152Z,9.50
